createdAt,value
2017-11-04T00:00:17.538Z,0
2017-11-04T00:00:43.681Z,0
2017-11-04T00:01:09.823Z,0
2017-11-04T00:01:35.977Z,0
2017-11-04T00:02:02.141Z,0
2017-11-04T00:02:28.295Z,0
2017-11-04T00:02:54.439Z,0
2017-11-04T00:03:20.575Z,0
2017-11-04T00:03:46.717Z,0
2017-11-04T00:04:12.865Z,0
2017-11-04T00:04:39.020Z,0
2017-11-04T00:05:05.163Z,0
2017-11-04T00:05:31.311Z,0
2017-11-04T00:05:57.456Z,0
2017-11-04T00:06:23.604Z,0
2017-11-04T00:06:49.742Z,0
2017-11-04T00:07:15.889Z,0
2017-11-04T00:07:42.038Z,0
2017-11-04T00:08:08.184Z,0
2017-11-04T02:26:24.109Z,0
2017-11-04T02:26:50.230Z,0
2017-11-04T02:27:16.705Z,0
2017-11-04T02:27:42.827Z,0
2017-11-04T02:28:08.950Z,0
2017-11-04T02:28:35.062Z,0
2017-11-04T02:29:01.184Z,0
2017-11-04T02:29:27.308Z,0
2017-11-04T02:29:53.420Z,0
2017-11-04T02:30:19.549Z,0
2017-11-04T02:30:45.660Z,0
2017-11-04T02:31:11.775Z,0
2017-11-04T02:31:37.899Z,0
2017-11-04T02:32:04.018Z,0
2017-11-04T02:32:30.136Z,0
2017-11-04T02:32:56.252Z,0
2017-11-04T02:33:22.370Z,0
2017-11-04T02:33:48.495Z,0
2017-11-04T02:34:14.618Z,0
2017-11-04T02:34:40.741Z,0
2017-11-04T02:35:06.852Z,0
2017-11-04T02:35:32.977Z,0
2017-11-04T02:35:59.089Z,0
2017-11-04T02:36:25.218Z,0
2017-11-04T02:36:51.336Z,0
2017-11-04T02:37:17.454Z,0
2017-11-04T02:37:43.577Z,0
2017-11-04T02:38:09.693Z,0
2017-11-04T02:38:35.821Z,0
2017-11-04T02:39:01.933Z,0
2017-11-04T02:39:28.053Z,0
2017-11-04T02:39:54.179Z,0
2017-11-04T02:40:20.297Z,0
2017-11-04T02:40:46.440Z,0
2017-11-04T02:41:12.557Z,0
2017-11-04T02:41:38.674Z,0
2017-11-04T02:42:04.798Z,0
2017-11-04T02:42:30.918Z,0
2017-11-04T02:42:57.031Z,0
2017-11-04T02:43:23.148Z,0
2017-11-04T02:43:49.636Z,0
2017-11-04T02:44:15.680Z,0
2017-11-04T02:44:41.798Z,0
2017-11-04T02:45:07.922Z,0
2017-11-04T02:45:34.040Z,0
2017-11-04T02:46:00.156Z,0
2017-11-04T02:46:26.281Z,0
2017-11-04T02:46:52.413Z,0
2017-11-04T02:47:18.535Z,0
2017-11-04T02:47:44.658Z,0
2017-11-04T02:48:10.774Z,0
2017-11-04T02:48:36.891Z,0
2017-11-04T02:49:03.013Z,0
2017-11-04T02:49:29.130Z,0
2017-11-04T02:49:55.243Z,0
2017-11-04T02:50:21.392Z,0
2017-11-04T02:50:47.510Z,0
2017-11-04T02:51:13.625Z,0
2017-11-04T02:51:39.743Z,0
2017-11-04T02:52:05.871Z,0
2017-11-04T02:52:31.994Z,0
2017-11-04T02:52:58.111Z,0
2017-11-04T02:53:24.248Z,0
2017-11-04T02:53:50.370Z,0
2017-11-04T02:54:16.505Z,0
2017-11-04T02:54:42.612Z,0
2017-11-04T02:55:08.726Z,0
2017-11-04T02:55:34.867Z,0
2017-11-04T02:56:00.988Z,0
2017-11-04T02:56:27.106Z,0
2017-11-04T02:56:53.229Z,0
2017-11-04T02:57:19.347Z,0
2017-11-04T02:57:45.476Z,0
2017-11-04T02:58:11.621Z,0
2017-11-04T02:58:37.762Z,0
2017-11-04T02:59:03.883Z,0
2017-11-04T02:59:29.997Z,0
2017-11-04T02:59:56.116Z,0
2017-11-04T03:00:22.241Z,0
2017-11-04T03:00:48.353Z,0
2017-11-04T03:01:14.474Z,0
2017-11-04T03:01:40.611Z,0
2017-11-04T03:02:07.024Z,0
2017-11-04T03:02:33.745Z,0
2017-11-04T03:02:59.873Z,0
2017-11-04T03:03:25.990Z,0
2017-11-04T03:03:52.107Z,0
2017-11-04T03:04:18.231Z,0
2017-11-04T03:04:44.345Z,0
2017-11-04T03:05:10.464Z,0
2017-11-04T03:05:36.595Z,0
2017-11-04T03:06:02.701Z,0
2017-11-04T03:06:28.826Z,0
2017-11-04T03:06:54.946Z,0
2017-11-04T03:07:21.063Z,0
2017-11-04T03:07:47.184Z,0
2017-11-04T03:08:13.296Z,0
2017-11-04T03:08:39.418Z,0
2017-11-04T03:09:05.533Z,0
2017-11-04T03:09:31.650Z,0
2017-11-04T03:09:57.775Z,0
2017-11-04T03:10:23.888Z,0
2017-11-04T03:10:50.015Z,0
2017-11-04T03:11:16.128Z,0
2017-11-04T03:11:42.257Z,0
2017-11-04T03:12:08.378Z,0
2017-11-04T03:12:34.494Z,0
2017-11-04T03:13:00.620Z,0
2017-11-04T03:13:26.739Z,0
2017-11-04T03:13:52.855Z,0
2017-11-04T03:14:18.977Z,0
2017-11-04T03:14:45.096Z,0
2017-11-04T03:15:11.217Z,0
2017-11-04T03:15:37.335Z,0
2017-11-04T03:16:03.457Z,0
2017-11-04T03:16:29.564Z,0
2017-11-04T03:16:55.687Z,0
2017-11-04T03:17:21.804Z,0
2017-11-04T03:17:49.781Z,0
2017-11-04T03:18:15.907Z,0
2017-11-04T03:18:42.020Z,0
2017-11-04T03:19:08.141Z,0
2017-11-04T03:19:34.260Z,0
2017-11-04T03:20:00.381Z,0
2017-11-04T03:20:26.490Z,0
2017-11-04T03:20:52.610Z,0
2017-11-04T03:21:18.735Z,0
2017-11-04T03:21:44.859Z,0
2017-11-04T03:22:10.984Z,0
2017-11-04T03:22:37.104Z,0
2017-11-04T03:23:03.223Z,0
2017-11-04T03:23:29.346Z,0
2017-11-04T03:23:55.458Z,0
2017-11-04T03:24:21.581Z,0
2017-11-04T03:24:47.703Z,0
2017-11-04T03:25:13.815Z,0
2017-11-04T03:25:39.940Z,0
2017-11-04T03:26:06.061Z,0
2017-11-04T03:26:32.184Z,0
2017-11-04T03:26:58.296Z,0
2017-11-04T03:27:24.420Z,0
2017-11-04T03:27:50.541Z,0
2017-11-04T03:28:16.654Z,0
2017-11-04T03:28:42.772Z,0
2017-11-04T03:29:08.915Z,0
2017-11-04T03:29:35.033Z,0
2017-11-04T03:30:01.159Z,0
2017-11-04T03:30:27.275Z,0
2017-11-04T03:30:53.401Z,0
2017-11-04T03:31:19.509Z,0
2017-11-04T03:31:45.631Z,0
2017-11-04T03:32:11.751Z,0
2017-11-04T03:32:37.866Z,0
2017-11-04T03:33:03.989Z,0
2017-11-04T03:33:30.106Z,0
2017-11-04T03:33:56.233Z,0
2017-11-04T03:34:22.364Z,0
2017-11-04T03:34:48.480Z,0
2017-11-04T03:35:14.603Z,0
2017-11-04T03:35:40.725Z,0
2017-11-04T03:36:06.854Z,0
2017-11-04T03:36:33.054Z,0
2017-11-04T03:36:59.507Z,0
2017-11-04T03:37:25.634Z,0
2017-11-04T03:37:51.749Z,0
2017-11-04T03:38:17.900Z,0
2017-11-04T03:38:44.017Z,0
2017-11-04T03:39:10.137Z,0
2017-11-04T03:39:36.256Z,0
2017-11-04T03:40:02.374Z,0
2017-11-04T03:40:28.507Z,0
2017-11-04T03:40:54.625Z,0
2017-11-04T03:41:20.746Z,0
2017-11-04T03:41:46.858Z,0
2017-11-04T03:42:12.981Z,0
2017-11-04T03:42:39.109Z,0
2017-11-04T03:43:05.233Z,0
2017-11-04T03:43:31.368Z,0
2017-11-04T03:43:57.485Z,0
2017-11-04T03:44:23.607Z,0
2017-11-04T03:44:49.732Z,0
2017-11-04T03:45:15.846Z,0
2017-11-04T03:45:41.992Z,0
2017-11-04T03:46:08.106Z,0
2017-11-04T03:46:35.618Z,0
2017-11-04T03:47:01.662Z,0
2017-11-04T03:47:27.778Z,0
2017-11-04T03:47:53.918Z,0
2017-11-04T03:48:20.043Z,0
2017-11-04T03:48:46.158Z,0
2017-11-04T03:49:12.283Z,0
2017-11-04T03:49:38.420Z,0
2017-11-04T03:50:04.539Z,0
2017-11-04T03:50:30.654Z,0
2017-11-04T03:50:56.774Z,0
2017-11-04T03:51:22.920Z,0
2017-11-04T03:51:49.036Z,0
2017-11-04T03:52:15.157Z,0
2017-11-04T03:52:41.279Z,0
2017-11-04T03:53:07.394Z,0
2017-11-04T03:53:33.516Z,0
2017-11-04T03:53:59.639Z,0
2017-11-04T03:54:25.755Z,0
2017-11-04T03:54:51.871Z,0
2017-11-04T03:55:17.996Z,0
2017-11-04T03:55:44.111Z,0
2017-11-04T03:56:10.233Z,0
2017-11-04T03:56:36.356Z,0
2017-11-04T03:57:02.471Z,0
2017-11-04T03:57:28.601Z,0
2017-11-04T03:57:54.733Z,0
2017-11-04T03:58:20.852Z,0
2017-11-04T03:58:46.974Z,0
2017-11-04T03:59:13.088Z,0
2017-11-04T03:59:39.214Z,0
2017-11-04T04:00:05.337Z,0
2017-11-04T04:00:31.470Z,0
2017-11-04T04:00:57.590Z,0
2017-11-04T04:01:23.713Z,0
2017-11-04T04:01:49.834Z,0
2017-11-04T04:02:15.947Z,0
2017-11-04T04:02:42.066Z,0
2017-11-04T04:03:08.190Z,0
2017-11-04T04:03:34.326Z,0
2017-11-04T04:04:00.436Z,0
2017-11-04T04:04:26.575Z,0
2017-11-04T04:04:52.698Z,0
2017-11-04T04:05:18.808Z,0
2017-11-04T04:05:44.934Z,0
2017-11-04T04:06:11.052Z,0
2017-11-04T04:06:37.177Z,0
2017-11-04T04:07:03.298Z,0
2017-11-04T04:07:29.415Z,0
2017-11-04T04:07:55.529Z,0
2017-11-04T04:08:21.653Z,0
2017-11-04T04:08:48.147Z,0
2017-11-04T04:09:14.262Z,0
2017-11-04T04:09:40.390Z,0
2017-11-04T04:10:06.502Z,0
2017-11-04T04:10:32.626Z,0
2017-11-04T04:10:58.748Z,0
2017-11-04T04:11:24.928Z,0
2017-11-04T04:11:51.077Z,0
2017-11-04T04:12:17.198Z,0
2017-11-04T04:12:43.313Z,0
2017-11-04T04:13:09.432Z,0
2017-11-04T04:13:35.559Z,0
2017-11-04T04:14:01.671Z,0
2017-11-04T04:14:27.789Z,0
2017-11-04T04:14:53.962Z,0
2017-11-04T04:15:20.009Z,0
2017-11-04T04:15:46.131Z,0
2017-11-04T04:16:12.249Z,0
2017-11-04T04:16:38.374Z,0
2017-11-04T04:17:04.487Z,0
2017-11-04T04:17:30.621Z,0
2017-11-04T04:17:56.735Z,0
2017-11-04T04:18:22.856Z,0
2017-11-04T04:18:48.979Z,0
2017-11-04T04:19:15.093Z,0
2017-11-04T04:19:41.216Z,0
2017-11-04T04:20:07.503Z,0
2017-11-04T04:20:33.628Z,0
2017-11-04T04:20:59.748Z,0
2017-11-04T04:21:25.863Z,0
2017-11-04T04:21:51.979Z,0
2017-11-04T04:22:18.106Z,0
2017-11-04T04:22:44.224Z,0
2017-11-04T04:23:10.339Z,0
2017-11-04T04:23:36.475Z,0
2017-11-04T04:24:02.597Z,0
2017-11-04T04:24:28.712Z,0
2017-11-04T04:24:54.841Z,0
2017-11-04T04:25:20.939Z,0
2017-11-04T04:25:47.063Z,0
2017-11-04T04:26:13.184Z,0
2017-11-04T04:26:39.299Z,0
2017-11-04T04:27:05.415Z,0
2017-11-04T04:27:31.540Z,0
2017-11-04T04:27:57.726Z,0
2017-11-04T04:28:23.840Z,0
2017-11-04T04:28:49.963Z,0
2017-11-04T04:29:16.084Z,0
2017-11-04T04:29:42.202Z,0
2017-11-04T04:30:08.323Z,0
2017-11-04T04:30:34.446Z,0
2017-11-04T04:31:00.560Z,0
2017-11-04T04:31:26.706Z,0
2017-11-04T04:31:52.846Z,0
2017-11-04T04:32:18.945Z,0
2017-11-04T04:32:45.067Z,0
2017-11-04T04:33:11.188Z,0
2017-11-04T04:33:37.306Z,0
2017-11-04T04:34:03.475Z,0
2017-11-04T04:34:29.586Z,0
2017-11-04T04:34:55.710Z,0
2017-11-04T04:35:21.824Z,0
2017-11-04T04:35:47.949Z,0
2017-11-04T04:36:14.071Z,0
2017-11-04T04:36:40.189Z,0
2017-11-04T04:37:06.304Z,0
2017-11-04T04:37:32.422Z,0
2017-11-04T04:37:58.546Z,0
2017-11-04T04:38:24.663Z,0
2017-11-04T04:38:50.783Z,0
2017-11-04T04:39:16.896Z,0
2017-11-04T04:39:43.017Z,0
2017-11-04T04:40:09.134Z,0
2017-11-04T04:40:35.251Z,0
2017-11-04T04:41:01.385Z,0
2017-11-04T04:41:27.532Z,0
2017-11-04T04:41:53.653Z,0
2017-11-04T04:42:19.768Z,0
2017-11-04T04:42:45.893Z,0
2017-11-04T04:43:12.012Z,0
2017-11-04T04:43:38.131Z,0
2017-11-04T04:44:04.249Z,0
2017-11-04T04:44:30.362Z,0
2017-11-04T04:44:56.485Z,0
2017-11-04T04:45:22.606Z,0
2017-11-04T04:45:48.722Z,0
2017-11-04T04:46:14.840Z,0
2017-11-04T04:46:40.976Z,0
2017-11-04T04:47:07.100Z,0
2017-11-04T04:47:33.214Z,0
2017-11-04T04:47:59.334Z,0
2017-11-04T04:48:25.459Z,0
2017-11-04T04:48:51.575Z,0
2017-11-04T04:49:17.693Z,0
2017-11-04T04:49:43.810Z,0
2017-11-04T04:50:09.934Z,0
2017-11-04T04:50:36.047Z,0
2017-11-04T04:51:02.169Z,0
2017-11-04T04:51:28.280Z,0
2017-11-04T04:51:54.407Z,0
2017-11-04T04:52:20.529Z,0
2017-11-04T04:52:46.646Z,0
2017-11-04T04:53:12.754Z,0
2017-11-04T04:53:38.878Z,0
2017-11-04T04:54:05.000Z,0
2017-11-04T04:54:31.131Z,0
2017-11-04T04:54:57.245Z,0
2017-11-04T04:55:23.382Z,0
2017-11-04T04:55:49.501Z,0
2017-11-04T04:56:15.649Z,0
2017-11-04T04:56:41.737Z,0
2017-11-04T04:57:07.853Z,0
2017-11-04T04:57:33.972Z,0
2017-11-04T04:58:00.095Z,0
2017-11-04T04:58:26.207Z,0
2017-11-04T04:58:52.327Z,0
2017-11-04T04:59:18.453Z,0
2017-11-04T04:59:44.592Z,0
2017-11-04T05:00:10.715Z,0
2017-11-04T05:00:36.835Z,0
2017-11-04T05:01:02.956Z,0
2017-11-04T05:01:29.074Z,0
2017-11-04T05:01:55.194Z,0
2017-11-04T05:02:21.313Z,0
2017-11-04T05:02:47.433Z,0
2017-11-04T05:03:13.554Z,0
2017-11-04T05:03:39.668Z,0
2017-11-04T05:04:05.818Z,0
2017-11-04T05:04:31.924Z,0
2017-11-04T05:04:58.050Z,0
2017-11-04T05:05:24.165Z,0
2017-11-04T05:05:50.289Z,0
2017-11-04T05:06:16.410Z,0
2017-11-04T05:06:42.525Z,0
2017-11-04T05:07:08.670Z,0
2017-11-04T05:07:34.796Z,0
2017-11-04T05:08:00.955Z,0
2017-11-04T05:08:27.078Z,0
2017-11-04T05:08:53.195Z,0
2017-11-04T05:09:19.320Z,0
2017-11-04T05:09:45.443Z,0
2017-11-04T05:10:11.554Z,0
2017-11-04T05:10:37.695Z,0
2017-11-04T05:11:03.833Z,0
2017-11-04T05:11:29.933Z,0
2017-11-04T05:11:56.066Z,0
2017-11-04T05:12:22.191Z,0
2017-11-04T05:12:48.310Z,0
2017-11-04T05:13:14.432Z,0
2017-11-04T05:13:40.549Z,0
2017-11-04T05:14:06.677Z,0
2017-11-04T05:14:32.796Z,0
2017-11-04T05:14:58.916Z,0
2017-11-04T05:15:25.037Z,0
2017-11-04T05:15:51.156Z,0
2017-11-04T05:16:17.269Z,0
2017-11-04T05:16:43.388Z,0
2017-11-04T05:17:09.506Z,0
2017-11-04T05:17:35.618Z,0
2017-11-04T05:18:01.730Z,0
2017-11-04T05:18:27.855Z,0
2017-11-04T05:18:53.973Z,0
2017-11-04T05:19:20.095Z,0
2017-11-04T05:19:46.215Z,0
2017-11-04T05:20:12.343Z,0
2017-11-04T05:20:38.472Z,0
2017-11-04T05:21:04.588Z,0
2017-11-04T05:21:30.712Z,0
2017-11-04T05:21:56.834Z,0
2017-11-04T05:22:22.958Z,0
2017-11-04T05:22:49.066Z,0
2017-11-04T05:23:15.189Z,0
2017-11-04T05:23:41.300Z,0
2017-11-04T05:24:07.420Z,0
2017-11-04T05:24:33.535Z,0
2017-11-04T05:24:59.657Z,0
2017-11-04T05:25:25.779Z,0
2017-11-04T05:25:51.895Z,0
2017-11-04T05:26:18.012Z,0
2017-11-04T05:26:44.132Z,0
2017-11-04T05:27:10.278Z,0
2017-11-04T05:27:36.393Z,0
2017-11-04T05:28:02.506Z,0
2017-11-04T05:28:28.630Z,0
2017-11-04T05:28:54.750Z,0
2017-11-04T05:29:20.865Z,0
2017-11-04T05:29:46.980Z,0
2017-11-04T05:30:13.105Z,0
2017-11-04T05:30:39.220Z,0
2017-11-04T05:31:05.343Z,0
2017-11-04T05:31:31.463Z,0
2017-11-04T05:31:57.577Z,0
2017-11-04T05:32:23.722Z,0
2017-11-04T05:32:49.833Z,0
2017-11-04T05:33:15.964Z,0
2017-11-04T05:33:42.077Z,0
2017-11-04T05:34:08.206Z,0
2017-11-04T05:34:34.317Z,0
2017-11-04T05:35:00.433Z,0
2017-11-04T05:35:26.559Z,0
2017-11-04T05:35:52.680Z,0
2017-11-04T05:36:18.789Z,0
2017-11-04T05:36:44.910Z,0
2017-11-04T05:37:11.026Z,0
2017-11-04T05:37:37.147Z,0
2017-11-04T05:38:03.268Z,0
2017-11-04T05:38:29.388Z,0
2017-11-04T05:38:55.497Z,0
2017-11-04T05:39:21.619Z,0
2017-11-04T05:39:47.746Z,0
2017-11-04T05:40:13.864Z,0
2017-11-04T05:40:39.983Z,0
2017-11-04T05:41:06.100Z,0
2017-11-04T05:41:32.226Z,0
2017-11-04T05:41:58.360Z,0
2017-11-04T05:42:24.477Z,0
2017-11-04T05:42:50.593Z,0
2017-11-04T05:43:16.707Z,0
2017-11-04T05:43:42.832Z,0
2017-11-04T05:44:08.972Z,0
2017-11-04T05:44:35.092Z,0
2017-11-04T05:45:01.211Z,0
2017-11-04T05:45:27.330Z,0
2017-11-04T05:45:53.452Z,0
2017-11-04T05:46:19.564Z,0
2017-11-04T05:46:45.685Z,0
2017-11-04T05:47:11.825Z,0
2017-11-04T05:47:37.940Z,0
2017-11-04T05:48:04.065Z,0
2017-11-04T05:48:30.178Z,0
2017-11-04T05:48:56.297Z,0
2017-11-04T05:49:22.419Z,0
2017-11-04T05:49:48.535Z,0
2017-11-04T05:50:14.660Z,0
2017-11-04T05:50:40.780Z,0
2017-11-04T05:51:06.895Z,0
2017-11-04T05:51:33.021Z,0
2017-11-04T05:51:59.135Z,0
2017-11-04T05:52:25.276Z,0
2017-11-04T05:52:51.401Z,0
2017-11-04T05:53:17.522Z,0
2017-11-04T05:53:43.636Z,4
2017-11-04T05:54:09.752Z,4
2017-11-04T05:54:35.876Z,4
2017-11-04T05:55:01.993Z,4
2017-11-04T05:55:28.114Z,4
2017-11-04T05:55:54.229Z,4
2017-11-04T05:56:20.352Z,0
2017-11-04T05:56:46.468Z,0
2017-11-04T05:57:12.588Z,0
2017-11-04T05:57:38.706Z,4
2017-11-04T05:58:04.829Z,4
2017-11-04T05:58:30.972Z,4
2017-11-04T05:58:57.093Z,4
2017-11-04T05:59:23.215Z,4
2017-11-04T05:59:49.328Z,4
2017-11-04T06:00:15.446Z,4
2017-11-04T06:00:41.574Z,4
2017-11-04T06:01:07.694Z,4
2017-11-04T06:01:33.814Z,4
2017-11-04T06:01:59.939Z,8
2017-11-04T06:02:26.051Z,8
2017-11-04T06:02:52.184Z,4
2017-11-04T06:03:18.288Z,8
2017-11-04T06:03:44.402Z,8
2017-11-04T06:04:10.526Z,12
2017-11-04T06:04:36.672Z,8
2017-11-04T06:05:02.786Z,12
2017-11-04T06:05:28.912Z,12
2017-11-04T06:05:55.034Z,12
2017-11-04T06:06:21.153Z,12
2017-11-04T06:06:47.270Z,12
2017-11-04T06:07:13.391Z,16
2017-11-04T06:07:39.504Z,16
2017-11-04T06:08:05.623Z,16
2017-11-04T06:08:31.744Z,20
2017-11-04T06:08:57.861Z,20
2017-11-04T06:09:23.987Z,20
2017-11-04T06:09:50.101Z,20
2017-11-04T06:10:16.239Z,20
2017-11-04T06:10:42.358Z,24
2017-11-04T06:11:08.480Z,28
2017-11-04T06:11:34.598Z,28
2017-11-04T06:12:00.725Z,28
2017-11-04T06:12:26.867Z,32
2017-11-04T06:12:52.978Z,36
2017-11-04T06:13:19.101Z,36
2017-11-04T06:13:45.217Z,40
2017-11-04T06:14:11.334Z,44
2017-11-04T06:14:37.457Z,48
2017-11-04T06:15:03.581Z,52
2017-11-04T06:15:29.693Z,52
2017-11-04T06:15:55.810Z,56
2017-11-04T06:16:21.934Z,64
2017-11-04T06:16:48.051Z,64
2017-11-04T06:17:14.169Z,68
2017-11-04T06:17:40.294Z,76
2017-11-04T06:18:06.414Z,76
2017-11-04T06:18:32.551Z,84
2017-11-04T06:18:58.668Z,88
2017-11-04T06:19:24.782Z,96
2017-11-04T06:19:50.902Z,104
2017-11-04T06:20:17.019Z,108
2017-11-04T06:20:43.139Z,112
2017-11-04T06:21:09.256Z,116
2017-11-04T06:21:35.384Z,120
2017-11-04T06:22:01.490Z,124
2017-11-04T06:22:27.606Z,124
2017-11-04T06:22:53.730Z,124
2017-11-04T06:23:19.850Z,128
2017-11-04T06:23:45.992Z,128
2017-11-04T06:24:12.118Z,132
2017-11-04T06:24:38.234Z,132
2017-11-04T06:25:04.350Z,136
2017-11-04T06:25:30.467Z,140
2017-11-04T06:25:56.595Z,144
2017-11-04T06:26:22.720Z,148
2017-11-04T06:26:48.838Z,152
2017-11-04T06:27:14.963Z,160
2017-11-04T06:27:41.099Z,164
2017-11-04T06:28:07.215Z,164
2017-11-04T06:28:33.332Z,172
2017-11-04T06:28:59.455Z,180
2017-11-04T06:29:25.570Z,184
2017-11-04T06:29:51.689Z,188
2017-11-04T06:30:17.810Z,192
2017-11-04T06:30:43.924Z,200
2017-11-04T06:31:10.047Z,204
2017-11-04T06:31:36.169Z,208
2017-11-04T06:32:02.282Z,216
2017-11-04T06:32:28.407Z,224
2017-11-04T06:32:54.522Z,232
2017-11-04T06:33:20.644Z,244
2017-11-04T06:33:46.763Z,252
2017-11-04T06:34:12.882Z,260
2017-11-04T06:34:39.001Z,272
2017-11-04T06:35:05.120Z,280
2017-11-04T06:35:31.245Z,288
2017-11-04T06:35:57.359Z,304
2017-11-04T06:36:23.484Z,312
2017-11-04T06:36:49.603Z,328
2017-11-04T06:37:15.721Z,336
2017-11-04T06:37:41.836Z,348
2017-11-04T06:38:07.962Z,364
2017-11-04T06:38:34.084Z,376
2017-11-04T06:39:00.200Z,388
2017-11-04T06:39:26.319Z,400
2017-11-04T06:39:52.444Z,416
2017-11-04T06:40:18.570Z,432
2017-11-04T06:40:44.686Z,444
2017-11-04T06:41:10.811Z,464
2017-11-04T06:41:36.931Z,480
2017-11-04T06:42:03.057Z,500
2017-11-04T06:42:29.168Z,516
2017-11-04T06:42:55.290Z,536
2017-11-04T06:43:21.404Z,552
2017-11-04T06:43:47.521Z,572
2017-11-04T06:44:13.644Z,596
2017-11-04T06:44:39.759Z,616
2017-11-04T06:45:05.878Z,636
2017-11-04T06:45:32.002Z,660
2017-11-04T06:45:58.117Z,680
2017-11-04T06:46:24.238Z,704
2017-11-04T06:46:50.370Z,728
2017-11-04T06:47:16.489Z,752
2017-11-04T06:47:42.607Z,780
2017-11-04T06:48:08.723Z,808
2017-11-04T06:48:34.840Z,832
2017-11-04T06:49:00.967Z,864
2017-11-04T06:49:27.087Z,892
2017-11-04T06:49:53.203Z,920
2017-11-04T06:50:19.328Z,952
2017-11-04T06:50:45.472Z,984
2017-11-04T06:51:11.595Z,1016
2017-11-04T06:51:37.717Z,1048
2017-11-04T06:52:03.825Z,1084
2017-11-04T06:52:29.946Z,1116
2017-11-04T06:52:56.064Z,1152
2017-11-04T06:53:22.187Z,1188
2017-11-04T06:53:48.297Z,1224
2017-11-04T06:54:14.418Z,1260
2017-11-04T06:54:40.540Z,1296
2017-11-04T06:55:06.662Z,1332
2017-11-04T06:55:32.784Z,1368
2017-11-04T06:55:58.899Z,1404
2017-11-04T06:56:25.022Z,1440
2017-11-04T06:56:51.134Z,1476
2017-11-04T06:57:17.250Z,1512
2017-11-04T06:57:43.370Z,1548
2017-11-04T06:58:09.490Z,1584
2017-11-04T06:58:35.618Z,1620
2017-11-04T06:59:01.732Z,1660
2017-11-04T06:59:27.848Z,1700
2017-11-04T06:59:53.969Z,1740
2017-11-04T07:00:20.095Z,1780
2017-11-04T07:00:46.212Z,1824
2017-11-04T07:01:12.325Z,1868
2017-11-04T07:01:38.444Z,1904
2017-11-04T07:02:04.583Z,1948
2017-11-04T07:02:30.710Z,1988
2017-11-04T07:02:56.834Z,2032
2017-11-04T07:03:22.949Z,2072
2017-11-04T07:03:49.072Z,2116
2017-11-04T07:04:15.189Z,2164
2017-11-04T07:04:41.306Z,2204
2017-11-04T07:05:07.428Z,2248
2017-11-04T07:05:33.558Z,2292
2017-11-04T07:05:59.673Z,2336
2017-11-04T07:06:25.783Z,2380
2017-11-04T07:06:51.903Z,2424
2017-11-04T07:07:18.021Z,2472
2017-11-04T07:07:44.145Z,2512
2017-11-04T07:08:10.284Z,2564
2017-11-04T07:08:36.429Z,2616
2017-11-04T07:09:02.543Z,2668
2017-11-04T07:09:28.661Z,2724
2017-11-04T07:09:54.789Z,2780
2017-11-04T07:10:20.900Z,2836
2017-11-04T07:10:47.019Z,2892
2017-11-04T07:11:13.143Z,2940
2017-11-04T07:11:39.257Z,2984
2017-11-04T07:12:05.382Z,3032
2017-11-04T07:12:31.494Z,3072
2017-11-04T07:12:57.622Z,3104
2017-11-04T07:13:23.742Z,3136
2017-11-04T07:13:49.859Z,3164
2017-11-04T07:14:15.992Z,3188
2017-11-04T07:14:42.097Z,3208
2017-11-04T07:15:08.218Z,3216
2017-11-04T07:15:34.332Z,3220
2017-11-04T07:16:00.459Z,3216
2017-11-04T07:16:26.580Z,3208
2017-11-04T07:16:52.705Z,3200
2017-11-04T07:17:18.819Z,3180
2017-11-04T07:17:44.941Z,3148
2017-11-04T07:18:11.056Z,3116
2017-11-04T07:18:37.175Z,3076
2017-11-04T07:19:03.293Z,3052
2017-11-04T07:19:29.423Z,3032
2017-11-04T07:19:55.542Z,3024
2017-11-04T07:20:21.655Z,3032
2017-11-04T07:20:47.772Z,3044
2017-11-04T07:21:13.888Z,3072
2017-11-04T07:21:40.010Z,3108
2017-11-04T07:22:06.120Z,3156
2017-11-04T07:22:32.240Z,3228
2017-11-04T07:22:58.361Z,3328
2017-11-04T07:23:24.483Z,3456
2017-11-04T07:23:50.600Z,3608
2017-11-04T07:24:16.726Z,3780
2017-11-04T07:24:42.840Z,3976
2017-11-04T07:25:08.964Z,4180
2017-11-04T07:25:35.078Z,4400
2017-11-04T07:26:01.202Z,4640
2017-11-04T07:26:27.323Z,4892
2017-11-04T07:26:53.446Z,5148
2017-11-04T07:27:19.565Z,5400
2017-11-04T07:27:45.678Z,5648
2017-11-04T07:28:11.798Z,5900
2017-11-04T07:28:37.922Z,6116
2017-11-04T07:29:04.046Z,6252
2017-11-04T07:29:30.159Z,6344
2017-11-04T07:29:56.287Z,6356
2017-11-04T07:30:22.405Z,6332
2017-11-04T07:30:48.520Z,6252
2017-11-04T07:31:14.645Z,6144
2017-11-04T07:31:40.759Z,6056
2017-11-04T07:32:06.882Z,5992
2017-11-04T07:32:33.006Z,6028
2017-11-04T07:32:59.118Z,6144
2017-11-04T07:33:25.236Z,6188
2017-11-04T07:33:51.361Z,6204
2017-11-04T07:34:17.480Z,6240
2017-11-04T07:34:43.601Z,6312
2017-11-04T07:35:09.724Z,6424
2017-11-04T07:35:35.841Z,6632
2017-11-04T07:36:01.958Z,6860
2017-11-04T07:36:28.082Z,7096
2017-11-04T07:36:54.209Z,7168
2017-11-04T07:37:20.321Z,7180
2017-11-04T07:37:46.464Z,7156
2017-11-04T07:38:12.578Z,7244
2017-11-04T07:38:38.700Z,7372
2017-11-04T07:39:04.816Z,7460
2017-11-04T07:39:30.936Z,7616
2017-11-04T07:39:57.061Z,7920
2017-11-04T07:40:23.176Z,8248
2017-11-04T07:40:49.301Z,8536
2017-11-04T07:41:15.413Z,8796
2017-11-04T07:41:41.534Z,9044
2017-11-04T07:42:07.655Z,9084
2017-11-04T07:42:33.786Z,9072
2017-11-04T07:42:59.903Z,9248
2017-11-04T07:43:26.033Z,9580
2017-11-04T07:43:52.154Z,9924
2017-11-04T07:44:18.273Z,10128
2017-11-04T07:44:44.392Z,10172
2017-11-04T07:45:10.509Z,10152
2017-11-04T07:45:36.630Z,10048
2017-11-04T07:46:02.756Z,9900
2017-11-04T07:46:28.871Z,9864
2017-11-04T07:46:54.987Z,9800
2017-11-04T07:47:21.114Z,9836
2017-11-04T07:47:47.234Z,9936
2017-11-04T07:48:13.351Z,10148
2017-11-04T07:48:39.476Z,10496
2017-11-04T07:49:05.591Z,10900
2017-11-04T07:49:31.722Z,11292
2017-11-04T07:49:57.835Z,11728
2017-11-04T07:50:23.958Z,12132
2017-11-04T07:50:50.080Z,12424
2017-11-04T07:51:16.209Z,12392
2017-11-04T07:51:42.320Z,12544
2017-11-04T07:52:08.435Z,12804
2017-11-04T07:52:34.567Z,12984
2017-11-04T07:53:00.695Z,13072
2017-11-04T07:53:26.807Z,13260
2017-11-04T07:53:52.933Z,13560
2017-11-04T07:54:19.056Z,13492
2017-11-04T07:54:45.170Z,13216
2017-11-04T07:55:11.288Z,12928
2017-11-04T07:55:37.416Z,12744
2017-11-04T07:56:03.532Z,12620
2017-11-04T07:56:29.657Z,12772
2017-11-04T07:56:55.781Z,12964
2017-11-04T07:57:21.904Z,13008
2017-11-04T07:57:48.018Z,13032
2017-11-04T07:58:14.161Z,13212
2017-11-04T07:58:40.282Z,13092
2017-11-04T07:59:06.395Z,12896
2017-11-04T07:59:32.520Z,12336
2017-11-04T07:59:58.634Z,12004
2017-11-04T08:00:24.759Z,12028
2017-11-04T08:00:50.872Z,11980
2017-11-04T08:01:17.020Z,11860
2017-11-04T08:01:43.139Z,11660
2017-11-04T08:02:09.264Z,11284
2017-11-04T08:02:35.388Z,11036
2017-11-04T08:03:01.502Z,10176
2017-11-04T08:03:27.625Z,9532
2017-11-04T08:03:53.740Z,9220
2017-11-04T08:04:19.857Z,8760
2017-11-04T08:04:45.982Z,8704
2017-11-04T08:05:12.107Z,8200
2017-11-04T08:05:38.264Z,7544
2017-11-04T08:06:04.382Z,7276
2017-11-04T08:06:30.504Z,7092
2017-11-04T08:06:56.620Z,6868
2017-11-04T08:07:22.737Z,6748
2017-11-04T08:07:48.855Z,6656
2017-11-04T08:08:14.972Z,6580
2017-11-04T08:08:41.100Z,6504
2017-11-04T08:09:07.224Z,6452
2017-11-04T08:09:33.341Z,6448
2017-11-04T08:09:59.466Z,6488
2017-11-04T08:10:25.580Z,6512
2017-11-04T08:10:51.706Z,6568
2017-11-04T08:11:17.818Z,6668
2017-11-04T08:11:43.942Z,6784
2017-11-04T08:13:24.009Z,7312
2017-11-04T08:13:50.138Z,7464
2017-11-04T08:14:16.269Z,7628
2017-11-04T08:14:42.380Z,7784
2017-11-04T08:15:08.528Z,7924
2017-11-04T08:15:34.638Z,8036
2017-11-04T08:16:00.758Z,8128
2017-11-04T08:16:26.882Z,8212
2017-11-04T08:16:53.009Z,8300
2017-11-04T08:17:19.131Z,8400
2017-11-04T08:17:45.278Z,8516
2017-11-04T08:18:11.408Z,8640
2017-11-04T08:18:37.528Z,8764
2017-11-04T08:19:03.655Z,8880
2017-11-04T08:19:29.774Z,8988
2017-11-04T08:19:55.904Z,9096
2017-11-04T08:20:22.024Z,9188
2017-11-04T08:20:48.152Z,9252
2017-11-04T08:21:14.270Z,9256
2017-11-04T08:21:40.392Z,9176
2017-11-04T08:22:06.509Z,9008
2017-11-04T08:22:32.634Z,8776
2017-11-04T08:22:58.778Z,8480
2017-11-04T08:23:24.901Z,8168
2017-11-04T08:23:51.013Z,7920
2017-11-04T08:24:17.141Z,7780
2017-11-04T08:24:43.265Z,7684
2017-11-04T08:25:09.383Z,7548
2017-11-04T08:25:35.510Z,7352
2017-11-04T08:26:01.625Z,7124
2017-11-04T08:26:27.747Z,6920
2017-11-04T08:26:53.881Z,6820
2017-11-04T08:27:20.024Z,6836
2017-11-04T08:27:46.135Z,6916
2017-11-04T08:28:12.263Z,6992
2017-11-04T08:28:38.383Z,6996
2017-11-04T08:29:04.503Z,6948
2017-11-04T08:29:30.626Z,6876
2017-11-04T08:29:56.748Z,6816
2017-11-04T08:30:22.867Z,6768
2017-11-04T08:30:48.993Z,6716